This is the latest recevied weather packets stored in our database for station/object KD0JCP-10. If no packets are shown the sender has not sent any weather packets the latest 10 day(s).
| Time | Temp. | Humidity | Pressure | Rain* | Wind** | Luminosity | Snow |
|---|---|---|---|---|---|---|---|
| 1777735282 | 13.33° C | 39% | 1023.9 hPa | 0 mm | - | - | - |
| 1777734982 | 13.33° C | 42% | 1024 hPa | 0 mm | - | - | - |
| 1777734682 | 13.33° C | 40% | 1023.9 hPa | 0 mm | - | - | - |
| 1777734382 | 12.78° C | 42% | 1024 hPa | 0 mm | - | - | - |
| 1777734082 | 12.22° C | 43% | 1024 hPa | 0 mm | - | - | - |
| 1777733782 | 12.22° C | 44% | 1024 hPa | 0 mm | - | - | - |
| 1777733482 | 12.22° C | 45% | 1024 hPa | 0 mm | - | - | - |
| 1777733182 | 11.67° C | 46% | 1024 hPa | 0 mm | - | - | - |
| 1777732882 | 11.67° C | 44% | 1024.1 hPa | 0 mm | - | - | - |
| 1777732582 | 11.11° C | 47% | 1024.1 hPa | 0 mm | - | - | - |
| 1777732282 | 11.11° C | 46% | 1024.1 hPa | 0 mm | - | - | - |
| 1777731982 | 10.56° C | 47% | 1024.1 hPa | 0 mm | - | - | - |
| 1777731682 | 10° C | 50% | 1024.1 hPa | 0 mm | - | - | - |
| 1777731382 | 10° C | 48% | 1024.1 hPa | 0 mm | - | - | - |
| 1777731082 | 9.44° C | 53% | 1024.1 hPa | 0 mm | - | - | - |
| 1777730782 | 9.44° C | 52% | 1024 hPa | 0 mm | - | - | - |
| 1777730482 | 9.44° C | 50% | 1024.1 hPa | 0 mm | - | - | - |
| 1777730182 | 8.89° C | 53% | 1024 hPa | 0 mm | - | - | - |
| 1777729882 | 8.89° C | 53% | 1024 hPa | 0 mm | - | - | - |
| 1777729582 | 8.33° C | 54% | 1024.1 hPa | 0 mm | - | - | - |
| 1777729282 | 8.33° C | 54% | 1024.1 hPa | 0 mm | - | - | - |
| 1777728982 | 7.78° C | 53% | 1024.2 hPa | 0 mm | - | - | - |
| 1777728682 | 7.78° C | 53% | 1024.1 hPa | 0 mm | - | - | - |
| 1777728382 | 7.78° C | 53% | 1024.1 hPa | 0 mm | - | - | - |
| 1777728082 | 7.22° C | 53% | 1024.1 hPa | 0 mm | - | - | - |
* Rain latest hour (hover to see other rain measurements)
** Current wind speed in m/s (hover to see current wind gust speed)